PWSweather.com
Personal Weather Stations
Station Observations
KRAAKEBERG
Karmoy, SkudeneshavnNO

KarmoySkudeneshavnNO

Lat: 59.14963, Lon: 5.21978

Elevation: 32

Station Type: Davis Vantage Pro2 Plus

http://www.harduz.net

Latest ConditionsUpdated 9:15:00 AM GMT+01:01 Monday, Nov 19, 2018
Currently Today's Max Today's Min Today's Average
Temperature 37.9°F3.3°C 39.7°F4.3°C 37.6°F3.1°C 38.5°F3.6°C
Dew Point 36.9°F2.7°C 38.5°F3.6°C 36.5°F2.5°C 37.5°F3.1°C
Winds 3.0 mph ENE4.8 kmh ENE 5.0 mph -8.0 kmh - - 2.6 mph 4.2 kmh
Wind Gusts 6.0 mph9.7 kmh 10.0 mph16.1 kmh - -
Humidity 96% 97% 95% 96%
Pressure 30.61 in1036.6 mb 30.65 in1037.9 mb 30.60 in1036.2 mb -
Hour Temp Dew Point Humidity Winds Wind Gusts Pressure Precip Precip Rate Daily Precip Total
09:15 AM 37.9°F3.3°C 36.9°F2.7°C 96% 3.0 mph ENE4.8 kmh ENE 6.0 mph9.7 kmh 30.61 in1036.6 mb 0.00 in0.0 mm 0.00 in0.0 mm 0.00 in0.0 mm
09:00 AM 38.3°F3.5°C 37.5°F3.1°C 97% 5.0 mph ENE8.0 kmh ENE 6.0 mph9.7 kmh 30.61 in1036.6 mb 0.00 in0.0 mm 0.00 in0.0 mm 0.00 in0.0 mm
08:45 AM 38.5°F3.6°C 37.7°F3.2°C 97% 2.0 mph E3.2 kmh E 5.0 mph8.0 kmh 30.61 in1036.6 mb 0.00 in0.0 mm 0.00 in0.0 mm 0.00 in0.0 mm
08:30 AM 38.5°F3.6°C 37.4°F3.0°C 96% 3.0 mph ENE4.8 kmh ENE 6.0 mph9.7 kmh 30.60 in1036.2 mb 0.00 in0.0 mm 0.00 in0.0 mm 0.00 in0.0 mm
08:15 AM 38.5°F3.6°C 37.4°F3.0°C 96% 3.0 mph ENE4.8 kmh ENE 5.0 mph8.0 kmh 30.60 in1036.2 mb 0.00 in0.0 mm 0.00 in0.0 mm 0.00 in0.0 mm
08:00 AM 38.7°F3.7°C 37.6°F3.1°C 96% 1.0 mph E1.6 kmh E 5.0 mph8.0 kmh 30.60 in1036.2 mb 0.00 in0.0 mm 0.00 in0.0 mm 0.00 in0.0 mm
07:45 AM 38.5°F3.6°C 37.7°F3.2°C 97% 2.0 mph NE3.2 kmh NE 3.0 mph4.8 kmh 30.60 in1036.2 mb 0.00 in0.0 mm 0.00 in0.0 mm 0.00 in0.0 mm
07:30 AM 38.5°F3.6°C 37.7°F3.2°C 97% 3.0 mph E4.8 kmh E 6.0 mph9.7 kmh 30.61 in1036.6 mb 0.00 in0.0 mm 0.00 in0.0 mm 0.00 in0.0 mm
07:15 AM 37.9°F3.3°C 36.9°F2.7°C 96% 2.0 mph NE3.2 kmh NE 5.0 mph8.0 kmh 30.61 in1036.6 mb 0.00 in0.0 mm 0.00 in0.0 mm 0.00 in0.0 mm
07:00 AM 37.8°F3.2°C 36.7°F2.6°C 96% 3.0 mph NE4.8 kmh NE 7.0 mph11.3 kmh 30.61 in1036.6 mb 0.00 in0.0 mm 0.00 in0.0 mm 0.00 in0.0 mm
06:45 AM 37.9°F3.3°C 36.9°F2.7°C 96% 3.0 mph NE4.8 kmh NE 5.0 mph8.0 kmh 30.61 in1036.6 mb 0.00 in0.0 mm 0.00 in0.0 mm 0.00 in0.0 mm
06:30 AM 37.9°F3.3°C 36.9°F2.7°C 96% 2.0 mph ENE3.2 kmh ENE 5.0 mph8.0 kmh 30.60 in1036.2 mb 0.00 in0.0 mm 0.00 in0.0 mm 0.00 in0.0 mm
06:15 AM 38.1°F3.4°C 37.1°F2.8°C 96% 2.0 mph E3.2 kmh E 6.0 mph9.7 kmh 30.61 in1036.6 mb 0.00 in0.0 mm 0.00 in0.0 mm 0.00 in0.0 mm
06:00 AM 38.7°F3.7°C 37.6°F3.1°C 96% 1.0 mph SE1.6 kmh SE 3.0 mph4.8 kmh 30.61 in1036.6 mb 0.00 in0.0 mm 0.00 in0.0 mm 0.00 in0.0 mm
05:45 AM 38.5°F3.6°C 37.4°F3.0°C 96% Calm Calm 1.0 mph1.6 kmh 30.61 in1036.6 mb 0.00 in0.0 mm 0.00 in0.0 mm 0.00 in0.0 mm
05:30 AM 38.3°F3.5°C 37.3°F2.9°C 96% 1.0 mph SE1.6 kmh SE 5.0 mph8.0 kmh 30.62 in1036.9 mb 0.00 in0.0 mm 0.00 in0.0 mm 0.00 in0.0 mm
05:15 AM 38.3°F3.5°C 37.3°F2.9°C 96% 3.0 mph ESE4.8 kmh ESE 8.0 mph12.9 kmh 30.62 in1036.9 mb 0.00 in0.0 mm 0.00 in0.0 mm 0.00 in0.0 mm
05:00 AM 38.8°F3.8°C 37.8°F3.2°C 96% 2.0 mph ESE3.2 kmh ESE 7.0 mph11.3 kmh 30.62 in1036.9 mb 0.00 in0.0 mm 0.00 in0.0 mm 0.00 in0.0 mm
04:45 AM 38.8°F3.8°C 37.8°F3.2°C 96% 2.0 mph SE3.2 kmh SE 7.0 mph11.3 kmh 30.63 in1037.3 mb 0.00 in0.0 mm 0.00 in0.0 mm 0.00 in0.0 mm
04:30 AM 39.0°F3.9°C 38.0°F3.3°C 96% 3.0 mph SE4.8 kmh SE 8.0 mph12.9 kmh 30.63 in1037.3 mb 0.00 in0.0 mm 0.00 in0.0 mm 0.00 in0.0 mm
04:15 AM 38.8°F3.8°C 37.8°F3.2°C 96% 1.0 mph SE1.6 kmh SE 5.0 mph8.0 kmh 30.63 in1037.3 mb 0.00 in0.0 mm 0.00 in0.0 mm 0.00 in0.0 mm
04:00 AM 38.7°F3.7°C 37.6°F3.1°C 96% 2.0 mph E3.2 kmh E 7.0 mph11.3 kmh 30.63 in1037.3 mb 0.00 in0.0 mm 0.00 in0.0 mm 0.00 in0.0 mm
03:45 AM 38.5°F3.6°C 37.4°F3.0°C 96% 5.0 mph ESE8.0 kmh ESE 10.0 mph16.1 kmh 30.63 in1037.3 mb 0.00 in0.0 mm 0.00 in0.0 mm 0.00 in0.0 mm
03:30 AM 38.8°F3.8°C 37.8°F3.2°C 96% 5.0 mph E8.0 kmh E 8.0 mph12.9 kmh 30.63 in1037.3 mb 0.00 in0.0 mm 0.00 in0.0 mm 0.00 in0.0 mm
03:15 AM 38.8°F3.8°C 37.8°F3.2°C 96% 5.0 mph SE8.0 kmh SE 10.0 mph16.1 kmh 30.64 in1037.6 mb 0.00 in0.0 mm 0.00 in0.0 mm 0.00 in0.0 mm
03:00 AM 38.3°F3.5°C 37.3°F2.9°C 96% 3.0 mph E4.8 kmh E 7.0 mph11.3 kmh 30.64 in1037.6 mb 0.00 in0.0 mm 0.00 in0.0 mm 0.00 in0.0 mm
02:45 AM 37.9°F3.3°C 36.9°F2.7°C 96% 2.0 mph NE3.2 kmh NE 5.0 mph8.0 kmh 30.64 in1037.6 mb 0.00 in0.0 mm 0.00 in0.0 mm 0.00 in0.0 mm
02:30 AM 37.8°F3.2°C 36.7°F2.6°C 96% 2.0 mph NE3.2 kmh NE 5.0 mph8.0 kmh 30.64 in1037.6 mb 0.00 in0.0 mm 0.00 in0.0 mm 0.00 in0.0 mm
02:15 AM 37.6°F3.1°C 36.5°F2.5°C 96% 2.0 mph ENE3.2 kmh ENE 5.0 mph8.0 kmh 30.64 in1037.6 mb 0.00 in0.0 mm 0.00 in0.0 mm 0.00 in0.0 mm
02:00 AM 37.8°F3.2°C 36.7°F2.6°C 96% 3.0 mph E4.8 kmh E 7.0 mph11.3 kmh 30.64 in1037.6 mb 0.00 in0.0 mm 0.00 in0.0 mm 0.00 in0.0 mm
01:45 AM 38.3°F3.5°C 37.3°F2.9°C 96% 3.0 mph E4.8 kmh E 5.0 mph8.0 kmh 30.64 in1037.6 mb 0.00 in0.0 mm 0.00 in0.0 mm 0.00 in0.0 mm
01:30 AM 38.7°F3.7°C 37.4°F3.0°C 95% 1.0 mph E1.6 kmh E 3.0 mph4.8 kmh 30.64 in1037.6 mb 0.00 in0.0 mm 0.00 in0.0 mm 0.00 in0.0 mm
01:15 AM 39.2°F4.0°C 37.9°F3.3°C 95% 2.0 mph E3.2 kmh E 7.0 mph11.3 kmh 30.64 in1037.6 mb 0.00 in0.0 mm 0.00 in0.0 mm 0.00 in0.0 mm
01:00 AM 39.7°F4.3°C 38.4°F3.6°C 95% 5.0 mph E8.0 kmh E 8.0 mph12.9 kmh 30.64 in1037.6 mb 0.00 in0.0 mm 0.00 in0.0 mm 0.00 in0.0 mm
12:45 AM 39.7°F4.3°C 38.4°F3.6°C 95% 3.0 mph E4.8 kmh E 6.0 mph9.7 kmh 30.64 in1037.6 mb 0.00 in0.0 mm 0.00 in0.0 mm 0.00 in0.0 mm
12:30 AM 39.4°F4.1°C 38.1°F3.4°C 95% 2.0 mph E3.2 kmh E 8.0 mph12.9 kmh 30.65 in1037.9 mb 0.00 in0.0 mm 0.00 in0.0 mm 0.00 in0.0 mm
12:15 AM 39.4°F4.1°C 38.1°F3.4°C 95% 3.0 mph NE4.8 kmh NE 6.0 mph9.7 kmh 30.65 in1037.9 mb 0.00 in0.0 mm 0.00 in0.0 mm 0.00 in0.0 mm
12:00 AM 39.6°F4.2°C 38.5°F3.6°C 96% 3.0 mph E4.8 kmh E 6.0 mph9.7 kmh 30.65 in1037.9 mb 0.00 in0.0 mm 0.00 in0.0 mm 0.00 in0.0 mm